Time;durP1;ratioP1;P1;durP2;ratioP2;P2;SDS_P1;SDS_P2;PMS_P1;PMS_P2;Temp;Humidity;BMP_temperature;BMP_pressure;BME280_temperature;BME280_humidity;BME280_pressure;Samples;Min_cycle;Max_cycle;Signal;HPM_P1;HPM_P2
2024/01/21 00:01:41;;;;;;;;;;;;;;;-2.03;70.83;102338.91;5037449;28;19927;-67
2024/01/21 00:04:07;;;;;;;;;;;;;;;-2.04;69.63;102325.97;5039306;28;19924;-66
2024/01/21 00:06:32;;;;;;;;;;;;;;;-2.05;70.00;102324.19;5038909;28;20015;-66
2024/01/21 00:08:58;;;;;;;;;;;;;;;-2.02;69.27;102315.00;5051027;28;20010;-66
2024/01/21 00:11:23;;;;;;;;;;;;;;;-1.86;66.90;102321.13;5042869;28;19927;-66
2024/01/21 00:13:48;;;;;;;;;;;;;;;-1.86;67.13;102311.72;5027314;28;19920;-66
2024/01/21 00:16:13;;;;;;;;;;;;;;;-2.03;67.68;102296.94;5049403;28;20052;-66
2024/01/21 00:18:39;;;;;;;;;;;;;;;-2.11;67.69;102291.34;5044191;28;19985;-67
2024/01/21 00:21:04;;;;;;;;;;;;;;;-2.00;66.79;102287.72;5048150;28;19974;-66
2024/01/21 00:23:32;;;;;;;;;;;;;;;-2.15;67.74;102291.94;5051314;28;19956;-66
2024/01/21 00:25:58;;;;;;;;;;;;;;;-2.15;66.76;102287.66;5025999;28;19917;-66
2024/01/21 00:28:24;;;;;;;;;;;;;;;-2.24;67.00;102292.22;5054531;28;19920;-67
2024/01/21 00:30:50;;;;;;;;;;;;;;;-2.20;66.94;102288.16;5037463;28;19971;-66
2024/01/21 00:33:15;;;;;;;;;;;;;;;-2.37;67.32;102289.66;5061464;28;20341;-66
2024/01/21 00:35:40;;;;;;;;;;;;;;;-2.30;66.76;102285.03;5039351;28;19921;-67
2024/01/21 00:38:06;;;;;;;;;;;;;;;-2.41;67.23;102274.84;5046678;28;19916;-66
2024/01/21 00:40:31;;;;;;;;;;;;;;;-2.52;67.90;102264.75;5028166;28;20369;-69
2024/01/21 00:42:59;;;;;;;;;;;;;;;-2.63;68.89;102270.88;5032725;28;19921;-69
2024/01/21 00:45:24;;;;;;;;;;;;;;;-2.72;68.99;102270.28;5040977;28;19920;-69
2024/01/21 00:47:49;;;;;;;;;;;;;;;-2.74;69.69;102272.75;5037843;28;20280;-69
2024/01/21 00:50:15;;;;;;;;;;;;;;;-2.87;70.50;102265.94;5031996;28;19931;-69
2024/01/21 00:52:40;;;;;;;;;;;;;;;-2.99;71.20;102266.03;5035177;28;19921;-69
2024/01/21 00:55:05;;;;;;;;;;;;;;;-2.96;70.33;102271.34;5037518;28;20399;-69
2024/01/21 00:57:31;;;;;;;;;;;;;;;-3.02;71.04;102270.03;5050415;28;19955;-69
2024/01/21 00:59:57;;;;;;;;;;;;;;;-2.96;70.36;102276.47;5055006;28;19952;-69
2024/01/21 01:02:23;;;;;;;;;;;;;;;-2.90;69.77;102273.44;5043922;28;19921;-69
2024/01/21 01:04:48;;;;;;;;;;;;;;;-3.11;70.47;102269.44;5050319;28;19970;-69
2024/01/21 01:07:14;;;;;;;;;;;;;;;-3.11;70.44;102270.31;5043634;28;19916;-69
2024/01/21 01:09:41;;;;;;;;;;;;;;;-3.09;70.45;102262.72;5064687;28;19920;-69
2024/01/21 01:12:07;;;;;;;;;;;;;;;-3.10;70.88;102260.94;5039697;28;19921;-69
2024/01/21 01:14:32;;;;;;;;;;;;;;;-3.01;70.13;102261.56;5019819;28;19924;-69
2024/01/21 01:16:58;;;;;;;;;;;;;;;-3.05;70.31;102257.91;5025561;28;19917;-69
2024/01/21 01:19:23;;;;;;;;;;;;;;;-3.11;71.00;102256.63;5035680;28;19993;-69
2024/01/21 01:21:48;;;;;;;;;;;;;;;-3.14;70.99;102239.34;5033121;28;19971;-69
2024/01/21 01:24:13;;;;;;;;;;;;;;;-3.14;70.76;102235.09;5035305;28;19946;-69
2024/01/21 01:26:41;;;;;;;;;;;;;;;-3.21;70.99;102208.97;5042782;28;19925;-69
2024/01/21 01:29:07;;;;;;;;;;;;;;;-3.25;71.40;102212.97;5040478;28;19920;-69
2024/01/21 01:31:32;;;;;;;;;;;;;;;-3.30;71.59;102204.13;5033894;28;20380;-69
2024/01/21 01:33:57;;;;;;;;;;;;;;;-3.31;71.38;102189.50;5044823;28;19925;-69
2024/01/21 01:36:22;;;;;;;;;;;;;;;-3.39;72.31;102195.78;5034545;28;20290;-69
2024/01/21 01:38:48;;;;;;;;;;;;;;;-3.30;71.70;102188.72;5063357;28;19959;-69
2024/01/21 01:41:13;;;;;;;;;;;;;;;-3.28;71.61;102189.72;5045485;28;19931;-69
2024/01/21 01:43:38;;;;;;;;;;;;;;;-3.19;70.40;102184.31;5034113;28;19916;-69
2024/01/21 01:46:05;;;;;;;;;;;;;;;-3.22;70.39;102184.09;5028840;28;19967;-69
2024/01/21 01:48:30;;;;;;;;;;;;;;;-3.24;70.52;102168.63;5051556;28;20023;-69
2024/01/21 01:50:57;;;;;;;;;;;;;;;-3.16;70.24;102164.91;5055978;28;20011;-69
2024/01/21 01:53:23;;;;;;;;;;;;;;;-3.07;69.81;102153.47;5053325;28;19978;-69
2024/01/21 01:55:48;;;;;;;;;;;;;;;-3.09;69.38;102148.22;5072206;28;19913;-69
2024/01/21 01:58:14;;;;;;;;;;;;;;;-2.97;69.39;102138.75;5050422;28;19916;-69
2024/01/21 02:00:40;;;;;;;;;;;;;;;-3.09;69.62;102137.06;5040901;28;19931;-69
2024/01/21 02:03:05;;;;;;;;;;;;;;;-3.18;70.49;102135.69;5034610;28;20292;-69
2024/01/21 02:05:31;;;;;;;;;;;;;;;-3.13;70.90;102134.31;5042082;28;20339;-69
2024/01/21 02:07:56;;;;;;;;;;;;;;;-3.09;70.56;102132.81;5034601;28;19924;-69
2024/01/21 02:10:21;;;;;;;;;;;;;;;-3.04;70.01;102133.13;5036697;28;19931;-69
2024/01/21 02:12:47;;;;;;;;;;;;;;;-3.07;70.41;102130.38;5033363;28;19944;-69
2024/01/21 02:15:12;;;;;;;;;;;;;;;-3.07;69.56;102136.38;5027456;28;19974;-69
2024/01/21 02:17:38;;;;;;;;;;;;;;;-3.01;69.86;102121.38;5046569;28;19939;-69
2024/01/21 02:20:03;;;;;;;;;;;;;;;-2.85;68.60;102114.69;5034323;28;19967;-69
2024/01/21 02:22:30;;;;;;;;;;;;;;;-2.93;69.28;102106.50;5055550;28;19939;-69
2024/01/21 02:24:55;;;;;;;;;;;;;;;-2.97;69.15;102100.28;5049655;28;19928;-69
2024/01/21 02:27:21;;;;;;;;;;;;;;;-2.79;67.67;102100.56;5032537;28;19921;-69
2024/01/21 02:29:46;;;;;;;;;;;;;;;-2.89;68.08;102087.03;5032754;28;19921;-69
2024/01/21 02:32:11;;;;;;;;;;;;;;;-2.85;68.08;102084.75;5027972;28;19928;-69
2024/01/21 02:34:37;;;;;;;;;;;;;;;-2.88;68.18;102084.56;5037137;28;19917;-69
2024/01/21 02:37:02;;;;;;;;;;;;;;;-2.85;67.89;102089.03;5038975;28;19965;-69
2024/01/21 02:39:27;;;;;;;;;;;;;;;-2.86;68.50;102083.00;5063080;28;19963;-69
2024/01/21 02:41:53;;;;;;;;;;;;;;;-2.87;68.33;102086.38;5047927;28;19924;-69
2024/01/21 02:44:18;;;;;;;;;;;;;;;-2.85;68.63;102079.63;5033063;28;19978;-69
2024/01/21 02:46:43;;;;;;;;;;;;;;;-2.69;67.36;102078.03;5042596;28;20419;-69
2024/01/21 02:49:08;;;;;;;;;;;;;;;-2.74;68.10;102056.31;5054083;28;19917;-69
2024/01/21 02:51:34;;;;;;;;;;;;;;;-2.59;67.08;102066.66;5054061;28;19936;-69
2024/01/21 02:54:02;;;;;;;;;;;;;;;-2.65;68.65;102068.03;5051502;28;19927;-69
2024/01/21 02:56:27;;;;;;;;;;;;;;;-2.59;67.84;102066.66;5040989;28;19968;-69
2024/01/21 02:58:53;;;;;;;;;;;;;;;-2.58;68.35;102061.63;5039616;28;20035;-69
2024/01/21 03:01:19;;;;;;;;;;;;;;;-2.41;67.50;102051.47;5039614;28;19960;-70
2024/01/21 03:03:44;;;;;;;;;;;;;;;-2.37;66.39;102044.09;5048778;28;20383;-67
2024/01/21 03:06:10;;;;;;;;;;;;;;;-2.25;66.64;102053.31;5036649;28;19984;-67
2024/01/21 03:08:35;;;;;;;;;;;;;;;-2.22;66.78;102054.38;5055972;28;19956;-67
2024/01/21 03:11:00;;;;;;;;;;;;;;;-2.15;66.65;102046.25;5037857;28;19967;-67
2024/01/21 03:13:26;;;;;;;;;;;;;;;-2.17;66.87;102029.88;5051214;28;20009;-67
2024/01/21 03:15:51;;;;;;;;;;;;;;;-2.11;66.65;102022.50;5035447;28;20450;-67
2024/01/21 03:18:16;;;;;;;;;;;;;;;-2.21;67.50;102024.44;5030478;28;20016;-67
2024/01/21 03:20:42;;;;;;;;;;;;;;;-2.18;67.92;102028.09;5051539;28;19993;-68
2024/01/21 03:23:07;;;;;;;;;;;;;;;-2.18;68.07;102014.38;5038538;28;19920;-67
2024/01/21 03:25:32;;;;;;;;;;;;;;;-2.07;67.43;101994.44;5042663;28;19920;-67
2024/01/21 03:27:58;;;;;;;;;;;;;;;-2.04;67.29;101994.59;5029888;28;19917;-67
2024/01/21 03:30:23;;;;;;;;;;;;;;;-2.03;67.06;101996.38;5038024;28;19974;-68
2024/01/21 03:32:48;;;;;;;;;;;;;;;-2.07;67.94;101999.56;5052922;28;20319;-67
2024/01/21 03:35:14;;;;;;;;;;;;;;;-1.95;66.90;102005.44;5041337;28;19970;-67
2024/01/21 03:37:41;;;;;;;;;;;;;;;-1.70;64.14;102019.69;5067044;28;19966;-67
2024/01/21 03:40:07;;;;;;;;;;;;;;;-1.80;65.78;102028.53;5055094;28;19916;-67
2024/01/21 03:42:32;;;;;;;;;;;;;;;-1.67;64.14;102022.44;5037556;28;19924;-67
2024/01/21 03:44:57;;;;;;;;;;;;;;;-1.61;64.34;102015.97;5043434;28;19928;-67
2024/01/21 03:47:23;;;;;;;;;;;;;;;-1.62;64.15;102016.75;5064017;28;19978;-67
2024/01/21 03:49:48;;;;;;;;;;;;;;;-1.42;63.66;102011.88;5041891;28;19924;-67
2024/01/21 03:52:13;;;;;;;;;;;;;;;-1.44;63.43;102004.06;5038218;28;19928;-67
2024/01/21 03:54:39;;;;;;;;;;;;;;;-1.48;63.58;102007.25;5038893;28;20357;-67
2024/01/21 03:57:04;;;;;;;;;;;;;;;-1.46;63.98;102013.34;5046268;28;19978;-67
2024/01/21 03:59:29;;;;;;;;;;;;;;;-1.48;63.75;102009.84;5056561;28;19959;-67
2024/01/21 04:01:55;;;;;;;;;;;;;;;-1.40;63.58;102011.13;5034957;28;19928;-67
2024/01/21 04:04:20;;;;;;;;;;;;;;;-1.38;63.26;102008.63;5039072;28;19913;-69
2024/01/21 04:06:46;;;;;;;;;;;;;;;-1.27;63.26;102001.53;5066591;28;19927;-67
2024/01/21 04:09:12;;;;;;;;;;;;;;;-1.31;63.24;101973.88;5025168;28;19925;-67
2024/01/21 04:11:40;;;;;;;;;;;;;;;-1.15;63.12;101961.06;5039005;28;20364;-67
2024/01/21 04:14:05;;;;;;;;;;;;;;;-1.25;63.19;101951.94;5036718;28;19997;-67
2024/01/21 04:16:31;;;;;;;;;;;;;;;-1.19;63.50;101958.22;5047851;28;20028;-67
2024/01/21 04:18:56;;;;;;;;;;;;;;;-1.25;64.23;101948.47;5032449;28;19977;-67
2024/01/21 04:21:21;;;;;;;;;;;;;;;-1.46;64.57;101946.50;5062638;28;20363;-68
2024/01/21 04:23:47;;;;;;;;;;;;;;;-1.13;62.88;101950.84;5061104;28;20062;-66
2024/01/21 04:26:12;;;;;;;;;;;;;;;-1.20;63.21;101957.34;5067164;28;19921;-67
2024/01/21 04:28:40;;;;;;;;;;;;;;;-1.18;63.13;101952.28;5050036;28;19985;-67
2024/01/21 04:31:06;;;;;;;;;;;;;;;-1.26;63.85;101955.31;5032017;28;19947;-67
2024/01/21 04:33:31;;;;;;;;;;;;;;;-1.34;64.21;101953.13;5038049;28;20529;-67
2024/01/21 04:35:56;;;;;;;;;;;;;;;-1.18;63.50;101960.88;5064644;28;19925;-67
2024/01/21 04:38:23;;;;;;;;;;;;;;;-1.29;63.21;101946.56;5035713;28;19924;-67
2024/01/21 04:40:49;;;;;;;;;;;;;;;-1.08;62.57;101937.44;5039068;28;19921;-67
2024/01/21 04:43:14;;;;;;;;;;;;;;;-1.26;63.57;101933.88;5035829;28;20339;-67
2024/01/21 04:45:39;;;;;;;;;;;;;;;-1.25;63.64;101926.22;5036673;28;19983;-67
2024/01/21 04:48:05;;;;;;;;;;;;;;;-1.28;63.87;101907.16;5038716;28;19937;-67
2024/01/21 04:50:30;;;;;;;;;;;;;;;-1.18;64.16;101906.84;5037048;28;19978;-67
2024/01/21 04:52:56;;;;;;;;;;;;;;;-1.12;63.80;101884.03;5050331;28;19923;-67
2024/01/21 04:55:22;;;;;;;;;;;;;;;-1.23;64.77;101882.59;5018524;28;19999;-67
2024/01/21 04:57:47;;;;;;;;;;;;;;;-1.20;64.82;101875.03;5033931;28;20007;-67
2024/01/21 05:00:13;;;;;;;;;;;;;;;-1.12;65.17;101878.91;5032044;28;20034;-67
2024/01/21 05:02:38;;;;;;;;;;;;;;;-0.95;64.68;101855.72;5048471;28;19923;-67
2024/01/21 05:05:04;;;;;;;;;;;;;;;-0.94;64.79;101857.50;5037980;28;20032;-67
2024/01/21 05:07:29;;;;;;;;;;;;;;;-1.01;64.67;101853.72;5020998;28;19923;-67
2024/01/21 05:09:54;;;;;;;;;;;;;;;-0.92;64.63;101861.03;5046957;28;20300;-67
2024/01/21 05:12:19;;;;;;;;;;;;;;;-0.76;64.20;101849.81;5033464;28;20051;-67
2024/01/21 05:14:45;;;;;;;;;;;;;;;-0.67;63.63;101844.28;5034936;28;19946;-67
2024/01/21 05:17:10;;;;;;;;;;;;;;;-0.65;64.27;101845.22;5033979;28;20019;-68
2024/01/21 05:19:35;;;;;;;;;;;;;;;-0.62;64.55;101855.66;5052776;28;20003;-67
2024/01/21 05:22:01;;;;;;;;;;;;;;;-0.57;64.26;101865.41;5037338;28;20069;-68
2024/01/21 05:24:26;;;;;;;;;;;;;;;-0.41;63.86;101866.16;5054278;28;19923;-67
2024/01/21 05:26:51;;;;;;;;;;;;;;;-0.39;63.84;101872.25;5040470;28;20418;-67
2024/01/21 05:29:17;;;;;;;;;;;;;;;-0.42;64.43;101880.72;5041677;28;20064;-67
2024/01/21 05:31:42;;;;;;;;;;;;;;;-0.35;64.43;101881.91;5037042;28;20027;-67
2024/01/21 05:34:08;;;;;;;;;;;;;;;-0.37;65.71;101868.97;5053983;28;19947;-67
2024/01/21 05:36:33;;;;;;;;;;;;;;;-0.27;64.85;101866.84;5050155;28;20293;-68
2024/01/21 05:38:58;;;;;;;;;;;;;;;-0.19;64.23;101850.97;5033863;28;19916;-67
2024/01/21 05:41:28;;;;;;;;;;;;;;;-0.03;63.85;101829.38;5046311;28;20327;-67
2024/01/21 05:43:53;;;;;;;;;;;;;;;-0.04;64.18;101853.38;5037851;28;20295;-67
2024/01/21 05:46:19;;;;;;;;;;;;;;;0.05;63.10;101841.75;5053995;28;20007;-68
2024/01/21 05:48:44;;;;;;;;;;;;;;;0.14;63.00;101847.31;5047759;28;20319;-67
2024/01/21 05:51:09;;;;;;;;;;;;;;;0.06;64.11;101846.97;5044034;28;19925;-67
2024/01/21 05:53:34;;;;;;;;;;;;;;;0.03;63.89;101833.03;5033456;28;20385;-68
2024/01/21 05:56:00;;;;;;;;;;;;;;;0.21;63.29;101854.53;5034027;28;20348;-66
2024/01/21 05:58:25;;;;;;;;;;;;;;;0.04;65.10;101845.13;5033060;28;19936;-68
2024/01/21 06:00:50;;;;;;;;;;;;;;;-0.06;65.39;101852.44;5042382;28;19928;-67
2024/01/21 06:03:34;;;;;;;;;;;;;;;0.02;64.51;101847.63;5036481;28;20351;-67
2024/01/21 06:06:00;;;;;;;;;;;;;;;-0.06;65.22;101842.13;5050473;28;19917;-68
2024/01/21 06:08:27;;;;;;;;;;;;;;;0.11;64.87;101849.75;5016947;28;19924;-67
2024/01/21 06:10:53;;;;;;;;;;;;;;;0.20;63.26;101850.19;5041740;28;19924;-68
2024/01/21 06:13:19;;;;;;;;;;;;;;;0.12;64.01;101849.84;5032794;28;19917;-67
2024/01/21 06:15:45;;;;;;;;;;;;;;;0.20;63.54;101826.09;5018652;28;20285;-68
2024/01/21 06:18:10;;;;;;;;;;;;;;;0.49;62.14;101814.56;5016908;28;19920;-67
2024/01/21 06:20:35;;;;;;;;;;;;;;;0.53;60.43;101811.28;5040514;28;19917;-67
2024/01/21 06:23:01;;;;;;;;;;;;;;;0.40;61.86;101845.06;5032877;28;20229;-68
2024/01/21 06:25:26;;;;;;;;;;;;;;;0.54;61.42;101838.84;5047378;28;19920;-67
2024/01/21 06:27:51;;;;;;;;;;;;;;;0.40;62.31;101839.91;5047092;28;19921;-67
2024/01/21 06:30:19;;;;;;;;;;;;;;;0.31;63.12;101846.41;5035511;28;20035;-66
2024/01/21 06:32:44;;;;;;;;;;;;;;;0.28;63.55;101874.63;5034287;28;19920;-68
2024/01/21 06:35:10;;;;;;;;;;;;;;;0.25;63.47;101866.75;5053314;28;19920;-67
2024/01/21 06:37:35;;;;;;;;;;;;;;;0.27;63.67;101864.25;5036056;28;19916;-68
2024/01/21 06:40:01;;;;;;;;;;;;;;;0.28;63.75;101856.59;5040069;28;19920;-68
2024/01/21 06:42:27;;;;;;;;;;;;;;;0.39;62.33;101858.78;5039231;28;20364;-67
2024/01/21 06:44:52;;;;;;;;;;;;;;;0.37;63.46;101850.97;5035348;28;19924;-68
2024/01/21 06:47:17;;;;;;;;;;;;;;;0.33;63.01;101854.22;5036158;28;19917;-67
2024/01/21 06:49:43;;;;;;;;;;;;;;;0.49;62.44;101867.03;5035641;28;20284;-68
2024/01/21 06:52:08;;;;;;;;;;;;;;;0.59;62.23;101858.00;5044353;28;19952;-67
2024/01/21 06:54:33;;;;;;;;;;;;;;;0.51;62.04;101855.06;5044816;28;20102;-68
2024/01/21 06:56:59;;;;;;;;;;;;;;;0.55;62.35;101869.00;5017212;28;19929;-67
2024/01/21 06:59:24;;;;;;;;;;;;;;;0.43;61.95;101873.56;5045442;28;19916;-68
2024/01/21 07:01:50;;;;;;;;;;;;;;;0.47;62.62;101868.63;5041890;28;19923;-67
2024/01/21 07:04:18;;;;;;;;;;;;;;;0.50;61.71;101870.47;5050618;28;20384;-68
2024/01/21 07:06:43;;;;;;;;;;;;;;;0.51;61.24;101860.22;5037616;28;19916;-68
2024/01/21 07:09:10;;;;;;;;;;;;;;;0.67;61.16;101842.88;5055746;28;20023;-67
2024/01/21 07:11:35;;;;;;;;;;;;;;;0.59;61.43;101846.78;5032494;28;20132;-68
2024/01/21 07:14:02;;;;;;;;;;;;;;;0.90;60.24;101827.53;5035087;28;20440;-67
2024/01/21 07:16:27;;;;;;;;;;;;;;;0.81;59.85;101817.69;5036777;28;19956;-67
2024/01/21 07:18:53;;;;;;;;;;;;;;;0.89;59.83;101811.16;5042037;28;19972;-67
2024/01/21 07:21:18;;;;;;;;;;;;;;;0.84;59.30;101803.19;5035768;28;20015;-67
2024/01/21 07:23:43;;;;;;;;;;;;;;;1.03;58.32;101804.91;5034441;28;20031;-67
2024/01/21 07:26:09;;;;;;;;;;;;;;;0.91;59.16;101819.84;5064631;28;20401;-67
2024/01/21 07:28:34;;;;;;;;;;;;;;;0.77;59.97;101819.22;5036396;28;20431;-68
2024/01/21 07:30:59;;;;;;;;;;;;;;;0.75;60.54;101817.41;5039448;28;19928;-67
2024/01/21 07:33:25;;;;;;;;;;;;;;;0.92;59.25;101808.72;5035653;28;19968;-67
2024/01/21 07:35:50;;;;;;;;;;;;;;;0.94;58.54;101809.66;5052921;28;19917;-67
2024/01/21 07:38:17;;;;;;;;;;;;;;;0.77;59.03;101811.50;5064987;28;20450;-67
2024/01/21 07:40:42;;;;;;;;;;;;;;;0.81;59.56;101815.97;5065977;28;19927;-67
2024/01/21 07:43:10;;;;;;;;;;;;;;;0.75;59.77;101812.22;5067486;28;19916;-67
2024/01/21 07:45:35;;;;;;;;;;;;;;;0.78;60.24;101820.13;5041076;28;19993;-67
2024/01/21 07:48:01;;;;;;;;;;;;;;;1.01;58.36;101811.69;5067999;28;20344;-67
2024/01/21 07:50:26;;;;;;;;;;;;;;;0.85;58.76;101804.09;5038956;28;19973;-67
2024/01/21 07:52:53;;;;;;;;;;;;;;;0.79;58.95;101798.66;5038564;28;20014;-67
2024/01/21 07:55:18;;;;;;;;;;;;;;;0.84;58.93;101817.81;5039176;28;19921;-67
2024/01/21 07:57:43;;;;;;;;;;;;;;;0.72;59.19;101851.72;5038634;28;19921;-67
2024/01/21 08:00:09;;;;;;;;;;;;;;;0.66;60.12;101859.16;5044534;28;19920;-67
2024/01/21 08:02:34;;;;;;;;;;;;;;;0.67;59.99;101854.06;5046270;28;19923;-68
2024/01/21 08:05:00;;;;;;;;;;;;;;;0.83;60.00;101863.41;5072979;28;19973;-66
2024/01/21 08:07:26;;;;;;;;;;;;;;;0.72;59.92;101858.53;5038086;28;19987;-64
2024/01/21 08:09:52;;;;;;;;;;;;;;;0.71;60.80;101872.28;5035986;28;19940;-64
2024/01/21 08:12:17;;;;;;;;;;;;;;;0.81;60.38;101895.97;5055001;28;19917;-64
2024/01/21 08:14:43;;;;;;;;;;;;;;;0.74;60.61;101913.69;5035822;28;20011;-64
2024/01/21 08:17:08;;;;;;;;;;;;;;;0.81;60.32;101918.31;5035713;28;20364;-64
2024/01/21 08:19:37;;;;;;;;;;;;;;;0.79;61.17;101917.34;5053749;28;19920;-64
2024/01/21 08:22:02;;;;;;;;;;;;;;;0.88;60.34;101922.03;5043990;28;19924;-64
2024/01/21 08:24:28;;;;;;;;;;;;;;;0.97;60.89;101913.03;5039390;28;20028;-66
2024/01/21 08:26:56;;;;;;;;;;;;;;;1.07;60.37;101900.53;5064616;28;19924;-64
2024/01/21 08:29:24;;;;;;;;;;;;;;;1.30;59.29;101902.41;5035938;28;19936;-64
2024/01/21 08:31:50;;;;;;;;;;;;;;;1.46;59.08;101900.50;5038553;28;19955;-64
2024/01/21 08:34:15;;;;;;;;;;;;;;;1.54;59.82;101906.88;5038818;28;20007;-64
2024/01/21 08:36:41;;;;;;;;;;;;;;;1.49;59.72;101913.53;5051190;28;20397;-64
2024/01/21 08:39:09;;;;;;;;;;;;;;;1.38;59.12;101895.88;5019141;28;19921;-64
2024/01/21 08:41:34;;;;;;;;;;;;;;;1.46;59.26;101892.75;5019335;28;19928;-64
2024/01/21 08:44:00;;;;;;;;;;;;;;;1.34;59.87;101899.16;5048095;28;19916;-64
2024/01/21 08:46:26;;;;;;;;;;;;;;;1.44;59.70;101892.69;5051571;28;20299;-64
2024/01/21 08:48:51;;;;;;;;;;;;;;;1.39;59.49;101896.75;5040989;28;20277;-65
2024/01/21 08:51:17;;;;;;;;;;;;;;;1.53;59.20;101890.47;5050417;28;20308;-64
2024/01/21 08:53:43;;;;;;;;;;;;;;;1.32;60.61;101892.16;5039087;28;20343;-64
2024/01/21 08:56:08;;;;;;;;;;;;;;;1.34;60.99;101899.16;5031635;28;19917;-65
2024/01/21 08:58:33;;;;;;;;;;;;;;;1.45;60.34;101911.63;5051843;28;19971;-65
2024/01/21 09:00:59;;;;;;;;;;;;;;;1.49;60.48;101914.41;5054689;28;19939;-65
2024/01/21 09:03:24;;;;;;;;;;;;;;;1.47;61.73;101916.06;5034449;28;20304;-65
2024/01/21 09:05:49;;;;;;;;;;;;;;;1.55;62.47;101913.78;5029306;28;20022;-64
2024/01/21 09:08:15;;;;;;;;;;;;;;;1.63;62.42;101902.09;5047666;28;20002;-65
2024/01/21 09:10:40;;;;;;;;;;;;;;;1.65;62.96;101900.47;5049476;28;19928;-65
2024/01/21 09:13:08;;;;;;;;;;;;;;;1.69;62.90;101901.47;5051068;28;19916;-65
2024/01/21 09:15:33;;;;;;;;;;;;;;;1.80;63.20;101882.13;5038956;28;19931;-65
2024/01/21 09:17:59;;;;;;;;;;;;;;;1.73;64.33;101898.19;5047711;28;19924;-64
2024/01/21 09:20:25;;;;;;;;;;;;;;;1.75;64.62;101911.16;5047971;28;19921;-64
2024/01/21 09:22:50;;;;;;;;;;;;;;;1.64;66.52;101919.38;5041139;28;20335;-64
2024/01/21 09:25:15;;;;;;;;;;;;;;;1.71;66.28;101925.66;5054104;28;20381;-65
2024/01/21 09:27:41;;;;;;;;;;;;;;;1.74;66.50;101928.38;5028807;28;20415;-65
2024/01/21 09:30:06;;;;;;;;;;;;;;;1.70;67.95;101932.53;5031629;28;19926;-65
2024/01/21 09:32:31;;;;;;;;;;;;;;;1.73;67.67;101943.00;5034146;28;19928;-65
2024/01/21 09:34:57;;;;;;;;;;;;;;;1.72;68.96;101928.31;5054157;28;19974;-65
2024/01/21 09:37:22;;;;;;;;;;;;;;;1.72;69.31;101922.25;5055325;28;19924;-65
2024/01/21 09:39:47;;;;;;;;;;;;;;;1.75;70.07;101929.25;5035047;28;20315;-64
2024/01/21 09:42:16;;;;;;;;;;;;;;;1.77;71.00;101945.69;5053093;28;20454;-64
2024/01/21 09:44:42;;;;;;;;;;;;;;;1.81;71.62;101952.78;5044159;28;19947;-65
2024/01/21 09:47:07;;;;;;;;;;;;;;;1.79;72.17;101949.25;5042656;28;20397;-64
2024/01/21 09:49:33;;;;;;;;;;;;;;;1.79;71.96;101941.50;5047688;28;19986;-65
2024/01/21 09:52:01;;;;;;;;;;;;;;;1.72;72.53;101958.44;5033631;28;19921;-64
2024/01/21 09:54:26;;;;;;;;;;;;;;;1.78;73.08;101958.72;5049059;28;19920;-64
2024/01/21 09:56:51;;;;;;;;;;;;;;;1.79;74.75;101957.00;5031421;28;20309;-65
2024/01/21 09:59:17;;;;;;;;;;;;;;;1.71;76.41;101960.16;5043395;28;19959;-65
2024/01/21 10:01:44;;;;;;;;;;;;;;;1.77;75.53;101963.78;5043862;28;20335;-65
2024/01/21 10:04:09;;;;;;;;;;;;;;;1.66;77.11;101953.88;5049622;28;20360;-65
2024/01/21 10:06:35;;;;;;;;;;;;;;;1.64;76.83;101952.94;5051885;28;19924;-64
2024/01/21 10:09:21;;;;;;;;;;;;;;;1.71;77.80;101942.06;5044102;28;19925;-65
2024/01/21 10:11:52;;;;;;;;;;;;;;;1.66;79.07;101937.50;5044923;28;19928;-64
2024/01/21 10:14:18;;;;;;;;;;;;;;;1.86;78.27;101936.63;5043823;28;20219;-64
2024/01/21 10:16:43;;;;;;;;;;;;;;;1.77;78.69;101936.25;5040337;28;19982;-64
2024/01/21 10:19:13;;;;;;;;;;;;;;;1.86;79.07;101938.34;5046835;28;19959;-65
2024/01/21 10:21:38;;;;;;;;;;;;;;;1.99;78.64;101938.03;5048506;28;20055;-65
2024/01/21 10:24:06;;;;;;;;;;;;;;;1.89;79.94;101935.88;5045034;28;20019;-64
2024/01/21 10:26:31;;;;;;;;;;;;;;;1.92;80.60;101945.47;5035155;28;20011;-65
2024/01/21 10:28:56;;;;;;;;;;;;;;;1.94;81.71;101929.22;5019719;28;20040;-64
2024/01/21 10:31:21;;;;;;;;;;;;;;;2.06;82.46;101914.19;5053710;28;19959;-65
2024/01/21 10:33:47;;;;;;;;;;;;;;;2.00;82.08;101898.44;5043935;28;19921;-65
2024/01/21 10:36:14;;;;;;;;;;;;;;;2.02;85.12;101906.25;5039528;28;19912;-67
2024/01/21 10:38:49;;;;;;;;;;;;;;;2.04;85.59;101897.75;5053002;28;19912;-65
2024/01/21 10:41:18;;;;;;;;;;;;;;;2.16;83.87;101909.41;5049947;28;19960;-65
2024/01/21 10:43:44;;;;;;;;;;;;;;;2.08;85.46;101909.97;5042143;28;19916;-65
2024/01/21 10:46:10;;;;;;;;;;;;;;;2.29;83.94;101911.63;5025136;28;19953;-65
2024/01/21 10:48:36;;;;;;;;;;;;;;;2.20;84.30;101911.28;5033400;28;19954;-65
2024/01/21 10:51:04;;;;;;;;;;;;;;;2.24;84.80;101902.81;5040206;28;19924;-65
2024/01/21 10:53:31;;;;;;;;;;;;;;;2.27;84.91;101890.03;5032270;28;19920;-65
2024/01/21 10:55:57;;;;;;;;;;;;;;;2.15;84.39;101890.41;5050120;28;19999;-65
2024/01/21 10:58:22;;;;;;;;;;;;;;;2.44;83.90;101895.81;5036415;28;20389;-65
2024/01/21 11:00:50;;;;;;;;;;;;;;;2.32;84.08;101880.72;5046983;28;19916;-65
2024/01/21 11:03:25;;;;;;;;;;;;;;;2.38;83.72;101880.94;5052774;28;19928;-65
2024/01/21 11:06:01;;;;;;;;;;;;;;;2.25;84.39;101858.03;5044856;28;19913;-65
2024/01/21 11:08:27;;;;;;;;;;;;;;;2.45;83.40;101863.09;5050421;28;20423;-65
2024/01/21 11:11:06;;;;;;;;;;;;;;;2.43;83.43;101866.50;5049155;28;19928;-65
2024/01/21 11:13:51;;;;;;;;;;;;;;;2.49;82.83;101868.44;5049056;28;19920;-65
2024/01/21 11:16:26;;;;;;;;;;;;;;;2.64;81.26;101867.25;5048691;28;19924;-65
2024/01/21 11:18:52;;;;;;;;;;;;;;;2.69;81.31;101850.19;5057729;28;19965;-65
2024/01/21 11:21:23;;;;;;;;;;;;;;;2.75;81.53;101871.13;5054171;28;19921;-65
2024/01/21 11:24:17;;;;;;;;;;;;;;;2.95;80.48;101880.47;5043613;28;19921;-65
2024/01/21 11:26:47;;;;;;;;;;;;;;;3.06;80.75;101877.38;5033103;28;19916;-65
2024/01/21 11:29:25;;;;;;;;;;;;;;;3.35;79.62;101881.03;5047864;28;19920;-65
2024/01/21 11:31:57;;;;;;;;;;;;;;;3.60;78.41;101881.84;5051451;28;19927;-65
2024/01/21 11:34:23;;;;;;;;;;;;;;;3.69;77.98;101882.13;5050134;28;19958;-65
2024/01/21 11:36:49;;;;;;;;;;;;;;;3.60;77.53;101887.91;5053013;28;20325;-66
2024/01/21 11:39:15;;;;;;;;;;;;;;;3.62;78.25;101885.34;5049679;28;19932;-69
2024/01/21 11:41:41;;;;;;;;;;;;;;;3.70;77.33;101863.16;5043145;28;20387;-69
2024/01/21 11:44:26;;;;;;;;;;;;;;;3.71;77.26;101869.25;5035496;28;20070;-69
2024/01/21 11:46:56;;;;;;;;;;;;;;;3.59;77.65;101872.31;5040052;28;19928;-69
2024/01/21 11:49:22;;;;;;;;;;;;;;;3.57;77.71;101872.25;5047802;28;20395;-68
2024/01/21 11:51:48;;;;;;;;;;;;;;;3.45;77.81;101888.28;5049078;28;19920;-69
2024/01/21 11:54:14;;;;;;;;;;;;;;;3.40;78.20;101868.22;5041287;28;19960;-69
2024/01/21 11:56:40;;;;;;;;;;;;;;;3.38;78.14;101883.72;5049062;28;19966;-69
2024/01/21 11:59:08;;;;;;;;;;;;;;;3.45;77.71;101882.22;5055276;28;19917;-69
2024/01/21 12:01:34;;;;;;;;;;;;;;;3.35;78.63;101886.19;5052156;28;19917;-69
2024/01/21 12:04:00;;;;;;;;;;;;;;;3.41;77.92;101878.63;5051250;28;19969;-69
2024/01/21 12:06:26;;;;;;;;;;;;;;;3.42;78.01;101877.81;5048387;28;19964;-69
2024/01/21 12:08:51;;;;;;;;;;;;;;;3.52;78.45;101873.81;5036543;28;20454;-69
2024/01/21 12:11:17;;;;;;;;;;;;;;;3.42;78.31;101880.41;5035139;28;19932;-69
2024/01/21 12:13:45;;;;;;;;;;;;;;;3.40;79.18;101883.75;5036218;28;19949;-68
2024/01/21 12:16:11;;;;;;;;;;;;;;;3.50;77.66;101896.19;5037370;28;19921;-69
2024/01/21 12:18:40;;;;;;;;;;;;;;;3.46;78.04;101890.03;5042494;28;20010;-69
2024/01/21 12:21:05;;;;;;;;;;;;;;;3.36;78.75;101900.03;5046434;28;20437;-69
2024/01/21 12:23:31;;;;;;;;;;;;;;;3.39;79.23;101898.44;5048619;28;19929;-69
2024/01/21 12:25:56;;;;;;;;;;;;;;;3.36;78.86;101897.44;5042407;28;19963;-69
2024/01/21 12:28:21;;;;;;;;;;;;;;;3.40;78.74;101902.78;5041304;28;19924;-70
2024/01/21 12:30:47;;;;;;;;;;;;;;;3.40;79.16;101897.59;5042562;28;20019;-69
2024/01/21 12:33:12;;;;;;;;;;;;;;;3.32;79.58;101906.81;5051166;28;20011;-69
2024/01/21 12:35:38;;;;;;;;;;;;;;;3.29;80.03;101901.53;5053112;28;19976;-69
2024/01/21 12:38:03;;;;;;;;;;;;;;;3.47;79.51;101896.97;5060225;28;20326;-68